FOOL Airport Information

Runway Information
Runway 16 Length 9844 ft width 148 ft
Elevation 29 ft Threshold 0 ft Heading 154
Runway 34 Length 9844 ft Width 148 ft
Elevation 28 ft Threshold 0 ft Heading 334
Airport Frequencies
Type A/G Name A/G VOICE Frequency 655.9 MHZ
Type RDO Name LIBREVILLE Frequency 666.6 MHZ
Type TWR Name TWR Frequency 118.7 MHZ
Airport Navaids
Type VOR-DME Name Libreville Frequency 112100 KHZ
Airport Weather Information & NOTAM
ADDS - METARS form results

(0633 UTC 18 February 2020)
Data provider http://aviationweather.gov/metar/data/
 
METAR text: FOOL 180630Z 09004KT 4500 BR FEW009 25/24 Q1012 BECMG NSW
Conditions at: FOOL (LIBREVILLE/LEON , GA) observed 0630 UTC 18 February 2020
Temperature: 25.0°C (77°F)
Dewpoint: 24.0°C (75°F) [RH = 94%]
Pressure (altimeter): 29.88 inches Hg (1012.0 mb)
Winds: from the E (90 degrees) at 5 MPH (4 knots; 2.1 m/s)
Visibility: 2.80 miles (4.51 km)
Ceiling: at least 12,000 feet AGL
Clouds: few clouds at 900 feet AGL
Weather: BR  (mist)

METAR text: FOOL 180600Z 08003KT 4500 BR FEW009 25/24 Q1012 BECMG NSW
Conditions at: FOOL (LIBREVILLE/LEON , GA) observed 0600 UTC 18 February 2020
Temperature: 25.0°C (77°F)
Dewpoint: 24.0°C (75°F) [RH = 94%]
Pressure (altimeter): 29.88 inches Hg (1012.0 mb)
Winds: from the E (80 degrees) at 3 MPH (3 knots; 1.5 m/s)
Visibility: 2.80 miles (4.51 km)
Ceiling: at least 12,000 feet AGL
Clouds: few clouds at 900 feet AGL
Weather: BR  (mist)

Forecast for: FOOL (LIBREVILLE/LEON , GA)
Text: TAF FOOL 180500Z 1806/1912 08004KT 8000 SCT009 BKN026
Forecast period: 0600 UTC 18 February 2020 to 1200 UTC 19 February 2020
Forecast type: FROM: standard forecast or significant change
Winds: from the E (80 degrees) at 5 MPH (4 knots; 2.1 m/s)
Visibility: 5 miles (8 km)
Ceiling: 2600 feet AGL
Clouds: scattered clouds at 900 feet AGL
broken clouds at 2600 feet AGL
Weather: no significant weather forecast for this period
Text: TEMPO 1806/1807 3000 BR
Forecast period: 0600 to 0700 UTC 18 February 2020
Forecast type: TEMPORARY: The following changes expected for less than half the time period
Visibility: 1.86 miles (2.99 km)
Ceiling: unknown
Clouds: missing
Weather: BR  (mist)
Text: TEMPO 1815/1903 TS BKN010 FEW020CB
Forecast period: 1500 UTC 18 February 2020 to 0300 UTC 19 February 2020
Forecast type: TEMPORARY: The following changes expected for less than half the time period
Visibility: missing
Ceiling: 1000 feet AGL
Clouds: broken clouds at 1000 feet AGL
few clouds at 2000 feet AGL
Weather: TS  (thunderstorm)